Senath, Missouri
Current Conditions -  °F | °C
As of 11:53 PM on Thursday 18 Dec 2014 (Local Time) from KHKA Reporting Station
Overcast Overcast  
Wind Chill: 34°   Ceiling: 4100
Heat Index: 40°   Visibility: 9mi
Dew Point: 37°   Wind: 8mph
Humidity: 89%   Direction: 40°NE
Pressure: 30.26"   Gusts: NA
Location:  36.13°N, 90.16°W
Report Text: KHKA 190553Z AUTO 04007KT 9SM OVC041 04/03 A3026 RMK AO2 SLP249 T00440028 10056 20044 400610028 50005
Loading
Personal Weather Stations






























Interactive Weather Map New forecast layout! Learn more

10-Day Weather Forecast

Advertisements
Track Severe Weather on mobile